createdAt,value
2019-03-13T00:00:03.018Z,93.95
2019-03-13T00:02:04.582Z,94.05
2019-03-13T00:03:06.284Z,94.36
2019-03-13T00:05:14.758Z,93.63
2019-03-13T00:06:22.322Z,93.63
2019-03-13T00:08:25.020Z,93.95
2019-03-13T00:09:32.560Z,92.90
2019-03-13T00:10:32.797Z,92.49
2019-03-13T00:11:26.815Z,93.01
2019-03-13T00:12:32.431Z,93.01
2019-03-13T00:13:35.883Z,93.22
2019-03-13T00:14:32.467Z,93.22
2019-03-13T00:15:33.748Z,92.59
2019-03-13T00:16:32.505Z,93.01
2019-03-13T00:17:33.414Z,93.01
2019-03-13T00:18:34.554Z,93.43
2019-03-13T00:19:32.395Z,93.01
2019-03-13T00:20:32.435Z,93.22
2019-03-13T00:22:36.106Z,93.32
2019-03-13T00:24:45.320Z,93.01
2019-03-13T00:25:52.837Z,92.90
2019-03-13T00:26:47.061Z,93.74
2019-03-13T00:27:54.056Z,93.32
2019-03-13T00:28:52.813Z,93.53
2019-03-13T00:29:53.893Z,93.53
2019-03-13T00:30:52.767Z,93.43
2019-03-13T00:31:52.866Z,93.32
2019-03-13T00:32:55.226Z,92.80
2019-03-13T00:33:52.690Z,93.28
2019-03-13T00:34:53.961Z,92.69
2019-03-13T00:35:52.753Z,93.22
2019-03-13T00:36:54.423Z,92.59
2019-03-13T00:37:53.978Z,93.07
2019-03-13T00:38:52.722Z,92.66
2019-03-13T00:39:52.775Z,93.07
2019-03-13T00:40:52.697Z,92.90
2019-03-13T00:42:55.460Z,92.55
2019-03-13T00:45:04.528Z,92.69
2019-03-13T00:46:06.206Z,92.38
2019-03-13T00:47:12.106Z,92.86
2019-03-13T00:48:14.315Z,92.86
2019-03-13T00:49:12.996Z,93.38
2019-03-13T00:51:14.763Z,93.43
2019-03-13T00:52:16.388Z,93.22
2019-03-13T00:53:24.468Z,92.97
2019-03-13T00:54:22.192Z,92.59
2019-03-13T00:55:22.252Z,92.55
2019-03-13T00:56:22.179Z,92.86
2019-03-13T00:57:22.167Z,92.69
2019-03-13T00:58:16.678Z,93.49
2019-03-13T01:00:24.846Z,92.97
2019-03-13T01:01:32.396Z,93.07
2019-03-13T01:02:32.402Z,92.86
2019-03-13T01:04:35.019Z,92.86
2019-03-13T01:05:36.810Z,92.76
2019-03-13T01:06:36.682Z,92.66
2019-03-13T01:07:36.706Z,92.97
2019-03-13T01:08:36.677Z,92.97
2019-03-13T01:09:36.681Z,92.86
2019-03-13T01:10:36.724Z,92.80
2019-03-13T01:11:36.682Z,93.07
2019-03-13T01:12:36.674Z,93.07
2019-03-13T01:13:36.692Z,93.18
2019-03-13T01:14:36.688Z,93.28
2019-03-13T01:15:36.712Z,93.49
2019-03-13T01:16:36.688Z,93.59
2019-03-13T01:17:39.035Z,93.70
2019-03-13T01:18:36.689Z,93.18
2019-03-13T01:19:34.798Z,92.86
2019-03-13T01:20:36.678Z,93.18
2019-03-13T01:21:36.698Z,92.86
2019-03-13T01:22:36.697Z,93.28
2019-03-13T01:23:36.695Z,93.84
2019-03-13T01:24:36.707Z,93.84
2019-03-13T01:25:36.722Z,93.32
2019-03-13T01:26:36.730Z,93.28
2019-03-13T01:27:43.811Z,92.97
2019-03-13T01:28:42.288Z,92.97
2019-03-13T01:29:43.371Z,93.59
2019-03-13T01:30:42.319Z,94.01
2019-03-13T01:31:42.291Z,93.49
2019-03-13T01:32:43.453Z,93.74
2019-03-13T01:33:42.296Z,93.49
2019-03-13T01:34:42.242Z,93.28
2019-03-13T01:35:42.253Z,93.59
2019-03-13T01:37:44.932Z,93.38
2019-03-13T01:38:52.471Z,93.18
2019-03-13T01:39:52.425Z,93.28
2019-03-13T01:40:52.397Z,92.86
2019-03-13T01:41:46.709Z,92.66
2019-03-13T01:42:54.274Z,92.76
2019-03-13T01:43:52.404Z,92.66
2019-03-13T01:44:52.413Z,92.76
2019-03-13T01:45:46.351Z,93.59
2019-03-13T01:46:46.285Z,93.38
2019-03-13T01:47:46.336Z,93.07
2019-03-13T01:48:46.284Z,92.76
2019-03-13T01:49:46.288Z,92.97
2019-03-13T01:50:52.315Z,92.35
2019-03-13T01:51:53.344Z,92.97
2019-03-13T01:52:53.472Z,93.18
2019-03-13T01:53:52.304Z,92.55
2019-03-13T01:54:45.507Z,92.55
2019-03-13T01:55:45.665Z,92.45
2019-03-13T01:56:52.256Z,92.76
2019-03-13T01:57:46.489Z,92.45
2019-03-13T01:58:46.478Z,92.14
2019-03-13T01:59:46.499Z,90.85
2019-03-13T02:00:44.632Z,91.20
2019-03-13T02:02:16.527Z,91.99
2019-03-13T02:03:18.277Z,90.95
2019-03-13T02:04:18.281Z,91.00
2019-03-13T02:05:18.258Z,91.62
2019-03-13T02:06:18.238Z,91.16
2019-03-13T02:07:18.261Z,92.45
2019-03-13T02:08:18.265Z,92.66
2019-03-13T02:09:18.242Z,92.55
2019-03-13T02:10:18.273Z,91.20
2019-03-13T02:11:18.258Z,91.31
2019-03-13T02:12:18.241Z,92.76
2019-03-13T02:13:18.263Z,92.55
2019-03-13T02:14:18.301Z,91.27
2019-03-13T02:15:18.269Z,92.61
2019-03-13T02:16:23.955Z,91.99
2019-03-13T02:17:18.349Z,91.06
2019-03-13T02:18:18.287Z,92.45
2019-03-13T02:20:08.630Z,91.52
2019-03-13T02:21:10.400Z,92.10
2019-03-13T02:22:10.447Z,91.31
2019-03-13T02:23:10.393Z,91.52
2019-03-13T02:24:10.402Z,92.10
2019-03-13T02:25:10.394Z,92.66
2019-03-13T02:26:10.440Z,92.61
2019-03-13T02:27:10.454Z,92.45
2019-03-13T02:28:10.395Z,91.83
2019-03-13T02:29:10.424Z,91.58
2019-03-13T02:30:10.400Z,91.16
2019-03-13T02:31:10.396Z,91.20
2019-03-13T02:32:10.419Z,91.20
2019-03-13T02:33:10.393Z,91.93
2019-03-13T02:34:10.422Z,91.83
2019-03-13T02:35:10.385Z,92.03
2019-03-13T02:36:10.406Z,92.35
2019-03-13T02:37:10.381Z,92.45
2019-03-13T02:38:10.399Z,92.14
2019-03-13T02:39:15.990Z,90.79
2019-03-13T02:40:16.030Z,91.52
2019-03-13T02:41:10.062Z,91.00
2019-03-13T02:42:10.005Z,90.64
2019-03-13T02:43:09.984Z,90.69
2019-03-13T02:44:10.024Z,91.27
2019-03-13T02:45:09.973Z,91.00
2019-03-13T02:46:09.957Z,90.69
2019-03-13T02:47:09.992Z,90.48
2019-03-13T02:48:09.974Z,91.41
2019-03-13T02:49:09.960Z,90.79
2019-03-13T02:50:09.967Z,90.75
2019-03-13T02:51:09.969Z,90.69
2019-03-13T02:52:09.997Z,89.75
2019-03-13T02:53:10.001Z,90.85
2019-03-13T02:54:09.955Z,90.89
2019-03-13T02:55:09.974Z,90.75
2019-03-13T02:56:09.963Z,90.02
2019-03-13T02:57:09.957Z,90.64
2019-03-13T02:58:10.014Z,90.02
2019-03-13T02:59:09.954Z,88.88
2019-03-13T03:00:09.965Z,89.09
2019-03-13T03:01:09.966Z,89.09
2019-03-13T03:02:09.968Z,89.50
2019-03-13T03:03:09.965Z,89.71
2019-03-13T03:04:10.011Z,90.64
2019-03-13T03:05:09.975Z,90.02
2019-03-13T03:06:15.673Z,90.27
2019-03-13T03:07:15.740Z,89.44
2019-03-13T03:08:10.077Z,89.86
2019-03-13T03:09:10.037Z,89.92
2019-03-13T03:10:15.777Z,89.96
2019-03-13T03:11:09.621Z,90.23
2019-03-13T03:12:15.653Z,89.09
2019-03-13T03:13:16.679Z,89.40
2019-03-13T03:14:09.659Z,89.40
2019-03-13T03:15:09.641Z,89.09
2019-03-13T03:16:09.630Z,90.02
2019-03-13T03:17:15.574Z,89.50
2019-03-13T03:18:16.745Z,88.15
2019-03-13T03:19:09.759Z,88.26
2019-03-13T03:20:09.705Z,88.26
2019-03-13T03:21:09.724Z,88.11
2019-03-13T03:22:09.724Z,88.78
2019-03-13T03:23:09.717Z,88.63
2019-03-13T03:24:09.697Z,89.19
2019-03-13T03:25:09.687Z,88.88
2019-03-13T03:26:09.725Z,88.98
2019-03-13T03:27:09.744Z,88.05
2019-03-13T03:28:09.719Z,87.90
2019-03-13T03:29:09.707Z,88.11
2019-03-13T03:30:09.756Z,88.94
2019-03-13T03:31:09.719Z,88.67
2019-03-13T03:32:09.685Z,88.21
2019-03-13T03:33:09.715Z,87.90
2019-03-13T03:34:09.713Z,88.21
2019-03-13T03:35:09.706Z,88.11
2019-03-13T03:36:09.684Z,88.67
2019-03-13T03:37:09.708Z,88.32
2019-03-13T03:38:09.790Z,87.18
2019-03-13T03:39:09.703Z,87.70
2019-03-13T03:40:09.684Z,87.90
2019-03-13T03:41:09.689Z,88.73
2019-03-13T03:42:09.683Z,88.73
2019-03-13T03:43:09.688Z,88.01
2019-03-13T03:44:09.702Z,87.49
2019-03-13T03:45:09.707Z,87.84
2019-03-13T03:46:09.687Z,86.45
2019-03-13T03:47:08.685Z,86.66
2019-03-13T03:48:09.255Z,86.45
2019-03-13T03:49:09.207Z,87.07
2019-03-13T03:50:09.216Z,87.28
2019-03-13T03:51:09.186Z,86.25
2019-03-13T03:52:09.224Z,85.42
2019-03-13T03:53:09.203Z,86.45
2019-03-13T03:54:08.196Z,84.96
2019-03-13T03:55:09.186Z,85.17
2019-03-13T03:56:09.198Z,85.48
2019-03-13T03:57:09.218Z,86.83
2019-03-13T03:58:09.301Z,86.35
2019-03-13T03:59:09.207Z,86.45
2019-03-13T04:00:08.233Z,86.87
2019-03-13T04:01:09.185Z,85.79
2019-03-13T04:02:09.210Z,85.83
2019-03-13T04:03:09.224Z,85.17
2019-03-13T04:04:09.209Z,85.63
2019-03-13T04:05:09.203Z,85.42
2019-03-13T04:06:07.498Z,85.38
2019-03-13T04:07:59.837Z,84.96
2019-03-13T04:09:01.598Z,84.55
2019-03-13T04:10:01.578Z,84.34
2019-03-13T04:11:01.691Z,84.55
2019-03-13T04:12:00.599Z,84.61
2019-03-13T04:13:01.597Z,84.55
2019-03-13T04:14:01.592Z,84.23
2019-03-13T04:15:01.618Z,84.44
2019-03-13T04:16:01.621Z,84.55
2019-03-13T04:17:01.587Z,84.86
2019-03-13T04:17:59.745Z,84.23
2019-03-13T04:19:01.628Z,83.93
2019-03-13T04:20:01.605Z,83.93
2019-03-13T04:21:01.606Z,83.83
2019-03-13T04:22:01.588Z,83.99
2019-03-13T04:23:01.704Z,83.47
2019-03-13T04:23:59.650Z,83.89
2019-03-13T04:25:01.660Z,84.03
2019-03-13T04:26:01.707Z,83.41
2019-03-13T04:27:01.590Z,82.86
2019-03-13T04:28:01.595Z,82.23
2019-03-13T04:29:00.576Z,82.75
2019-03-13T04:29:59.601Z,83.37
2019-03-13T04:31:01.100Z,83.47
2019-03-13T04:32:01.083Z,83.16
2019-03-13T04:33:01.086Z,82.95
2019-03-13T04:34:01.090Z,83.16
2019-03-13T04:35:01.069Z,82.54
2019-03-13T04:35:59.525Z,82.95
2019-03-13T04:37:01.069Z,82.86
2019-03-13T04:38:01.088Z,82.95
2019-03-13T04:39:01.149Z,83.68
2019-03-13T04:40:01.079Z,84.13
2019-03-13T04:41:01.069Z,83.83
2019-03-13T04:41:59.446Z,83.37
2019-03-13T04:43:01.089Z,83.78
2019-03-13T04:44:01.131Z,83.37
2019-03-13T04:45:01.068Z,83.68
2019-03-13T04:46:01.075Z,83.47
2019-03-13T04:47:01.067Z,83.26
2019-03-13T04:47:59.411Z,83.37
2019-03-13T04:49:01.069Z,83.78
2019-03-13T04:50:01.111Z,83.47
2019-03-13T04:51:01.070Z,84.20
2019-03-13T04:52:01.072Z,83.37
2019-03-13T04:53:01.083Z,83.89
2019-03-13T04:53:59.313Z,84.20
2019-03-13T04:55:01.079Z,84.41
2019-03-13T04:56:01.103Z,84.55
2019-03-13T04:57:01.077Z,84.44
2019-03-13T04:58:01.087Z,84.75
2019-03-13T04:59:01.070Z,83.93
2019-03-13T05:00:01.081Z,83.68
2019-03-13T05:01:01.070Z,83.16
2019-03-13T05:02:01.089Z,83.78
2019-03-13T05:03:01.153Z,84.09
2019-03-13T05:04:01.089Z,83.89
2019-03-13T05:05:01.092Z,84.20
2019-03-13T05:06:01.082Z,84.30
2019-03-13T05:07:01.108Z,83.26
2019-03-13T05:08:01.133Z,83.89
2019-03-13T05:09:01.093Z,83.37
2019-03-13T05:10:01.078Z,83.47
2019-03-13T05:11:01.071Z,83.37
2019-03-13T05:12:01.088Z,84.20
2019-03-13T05:13:01.136Z,83.89
2019-03-13T05:14:01.103Z,84.09
2019-03-13T05:15:01.069Z,83.99
2019-03-13T05:16:01.127Z,83.89
2019-03-13T05:17:00.591Z,83.58
2019-03-13T05:18:00.602Z,84.09
2019-03-13T05:19:00.569Z,84.20
2019-03-13T05:20:00.566Z,84.20
2019-03-13T05:21:00.595Z,84.30
2019-03-13T05:22:00.610Z,84.51
2019-03-13T05:23:00.591Z,83.68
2019-03-13T05:24:00.578Z,84.51
2019-03-13T05:25:00.574Z,84.41
2019-03-13T05:26:00.568Z,84.51
2019-03-13T05:27:00.603Z,84.51
2019-03-13T05:28:00.579Z,84.51
2019-03-13T05:28:59.003Z,84.30
2019-03-13T05:30:00.568Z,83.99
2019-03-13T05:31:00.567Z,84.51
2019-03-13T05:32:00.584Z,84.30
2019-03-13T05:33:00.596Z,84.61
2019-03-13T05:34:00.572Z,84.09
2019-03-13T05:35:00.569Z,83.99
2019-03-13T05:36:00.588Z,84.61
2019-03-13T05:37:00.580Z,84.20
2019-03-13T05:38:00.571Z,83.99
2019-03-13T05:39:00.593Z,84.20
2019-03-13T05:40:00.618Z,84.30
2019-03-13T05:41:00.655Z,84.51
2019-03-13T05:42:00.607Z,84.41
2019-03-13T05:43:00.590Z,84.30
2019-03-13T05:44:00.608Z,84.61
2019-03-13T05:45:00.573Z,84.82
2019-03-13T05:46:00.571Z,83.78
2019-03-13T05:47:00.632Z,83.89
2019-03-13T05:48:00.573Z,83.89
2019-03-13T05:49:00.598Z,83.47
2019-03-13T05:50:00.679Z,83.33
2019-03-13T05:51:00.573Z,83.47
2019-03-13T05:52:00.612Z,83.99
2019-03-13T05:53:00.582Z,83.89
2019-03-13T05:54:00.574Z,84.30
2019-03-13T05:55:00.571Z,84.20
2019-03-13T05:56:00.589Z,84.20
2019-03-13T05:57:00.598Z,83.99
2019-03-13T05:58:00.575Z,84.51
2019-03-13T05:59:00.656Z,84.41
2019-03-13T06:00:00.587Z,84.41
2019-03-13T06:01:00.573Z,84.30
2019-03-13T06:02:00.597Z,83.89
2019-03-13T06:03:00.665Z,83.75
2019-03-13T06:03:59.580Z,83.44
2019-03-13T06:05:00.067Z,83.33
2019-03-13T06:06:00.068Z,83.44
2019-03-13T06:07:00.086Z,83.85
2019-03-13T06:08:00.084Z,84.06
2019-03-13T06:09:00.068Z,83.75
2019-03-13T06:09:58.529Z,83.95
2019-03-13T06:11:00.064Z,83.85
2019-03-13T06:12:00.068Z,83.95
2019-03-13T06:13:00.080Z,83.44
2019-03-13T06:14:00.067Z,82.19
2019-03-13T06:15:03.318Z,82.60
2019-03-13T06:15:58.454Z,83.12
2019-03-13T06:17:00.077Z,83.02
2019-03-13T06:18:00.079Z,82.60
2019-03-13T06:19:00.065Z,83.44
2019-03-13T06:20:00.457Z,83.02
2019-03-13T06:21:00.075Z,81.99
2019-03-13T06:22:00.068Z,81.84
2019-03-13T06:23:00.081Z,82.05
2019-03-13T06:24:00.098Z,81.95
2019-03-13T06:25:01.101Z,82.15
2019-03-13T06:26:00.079Z,82.60
2019-03-13T06:27:00.088Z,82.71
2019-03-13T06:28:00.075Z,82.92
2019-03-13T06:29:00.099Z,83.02
2019-03-13T06:30:00.066Z,82.71
2019-03-13T06:31:00.066Z,82.71
2019-03-13T06:32:00.104Z,82.71
2019-03-13T06:33:00.075Z,82.60
2019-03-13T06:34:00.072Z,82.60
2019-03-13T06:35:00.068Z,82.09
2019-03-13T06:36:00.067Z,81.74
2019-03-13T06:37:00.119Z,82.78
2019-03-13T06:38:00.078Z,82.26
2019-03-13T06:38:58.409Z,82.46
2019-03-13T06:40:00.174Z,82.98
2019-03-13T06:41:00.070Z,83.29
2019-03-13T06:42:00.080Z,82.98
2019-03-13T06:43:00.084Z,82.78
2019-03-13T06:44:00.077Z,82.78
2019-03-13T06:44:58.166Z,83.50
2019-03-13T06:46:00.069Z,84.01
2019-03-13T06:47:00.080Z,84.47
2019-03-13T06:48:00.091Z,84.68
2019-03-13T06:49:00.089Z,85.92
2019-03-13T06:50:00.258Z,86.23
2019-03-13T06:50:58.115Z,86.75
2019-03-13T06:51:59.082Z,86.13
2019-03-13T06:52:59.572Z,86.44
2019-03-13T06:53:59.591Z,86.02
2019-03-13T06:54:59.592Z,86.65
2019-03-13T06:55:59.573Z,85.30
2019-03-13T06:56:59.592Z,85.19
2019-03-13T06:57:59.573Z,86.23
2019-03-13T06:58:59.586Z,86.54
2019-03-13T06:59:59.579Z,85.50
2019-03-13T07:00:59.597Z,86.13
2019-03-13T07:01:59.572Z,85.92
2019-03-13T07:02:59.592Z,86.65
2019-03-13T07:03:59.584Z,87.06
2019-03-13T07:04:59.564Z,85.92
2019-03-13T07:05:59.565Z,85.92
2019-03-13T07:06:59.719Z,86.54
2019-03-13T07:07:59.576Z,86.23
2019-03-13T07:08:59.656Z,86.54
2019-03-13T07:09:59.568Z,85.50
2019-03-13T07:10:59.593Z,86.23
2019-03-13T07:11:59.575Z,86.65
2019-03-13T07:12:59.574Z,87.57
2019-03-13T07:13:59.577Z,86.96
2019-03-13T07:14:59.709Z,88.30
2019-03-13T07:15:59.578Z,87.99
2019-03-13T07:17:00.579Z,88.61
2019-03-13T07:17:59.572Z,87.47
2019-03-13T07:18:59.587Z,86.96
2019-03-13T07:19:59.579Z,86.75
2019-03-13T07:20:59.596Z,86.23
2019-03-13T07:21:59.566Z,86.23
2019-03-13T07:22:59.608Z,86.44
2019-03-13T07:23:59.596Z,85.47
2019-03-13T07:24:59.673Z,85.68
2019-03-13T07:25:58.000Z,85.99
2019-03-13T07:26:59.565Z,85.16
2019-03-13T07:27:59.568Z,85.26
2019-03-13T07:29:11.558Z,85.78
2019-03-13T07:30:00.574Z,85.47
2019-03-13T07:30:59.587Z,84.84
2019-03-13T07:31:59.595Z,85.26
2019-03-13T07:34:01.882Z,85.57
2019-03-13T07:35:03.785Z,85.68
2019-03-13T07:36:03.783Z,86.19
2019-03-13T07:37:03.860Z,85.78
2019-03-13T07:38:03.769Z,85.16
2019-03-13T07:39:03.862Z,86.19
2019-03-13T07:40:03.849Z,85.68
2019-03-13T07:41:04.283Z,85.16
2019-03-13T07:42:03.299Z,85.68
2019-03-13T07:43:03.314Z,85.63
2019-03-13T07:44:03.376Z,86.50
2019-03-13T07:45:04.298Z,85.78
2019-03-13T07:46:03.300Z,86.19
2019-03-13T07:47:04.299Z,86.91
2019-03-13T07:48:03.282Z,86.29
2019-03-13T07:49:03.290Z,85.99
2019-03-13T07:50:03.273Z,86.29
2019-03-13T07:51:03.314Z,85.99
2019-03-13T07:52:03.316Z,85.99
2019-03-13T07:53:03.276Z,86.19
2019-03-13T07:54:03.286Z,85.99
2019-03-13T07:55:01.634Z,86.67
2019-03-13T07:56:04.281Z,86.50
2019-03-13T07:57:03.281Z,85.42
2019-03-13T07:58:04.320Z,85.11
2019-03-13T07:59:03.275Z,85.68
2019-03-13T08:00:04.342Z,86.19
2019-03-13T08:01:03.275Z,85.99
2019-03-13T08:02:04.287Z,85.47
2019-03-13T08:03:04.315Z,85.05
2019-03-13T08:04:05.223Z,85.05
2019-03-13T08:05:03.271Z,85.42
2019-03-13T08:06:03.271Z,85.11
2019-03-13T08:07:03.267Z,84.70
2019-03-13T08:08:03.270Z,85.02
2019-03-13T08:09:03.297Z,84.91
2019-03-13T08:10:04.292Z,85.22
2019-03-13T08:11:03.270Z,85.11
2019-03-13T08:12:04.290Z,85.11
2019-03-13T08:13:03.273Z,85.47
2019-03-13T08:14:03.340Z,85.36
2019-03-13T08:15:03.292Z,85.16
2019-03-13T08:16:03.340Z,85.22
2019-03-13T08:17:03.313Z,85.02
2019-03-13T08:18:04.293Z,84.91
2019-03-13T08:19:01.570Z,85.22
2019-03-13T08:20:04.303Z,85.42
2019-03-13T08:21:04.338Z,84.91
2019-03-13T08:22:03.303Z,85.47
2019-03-13T08:23:02.389Z,85.53
2019-03-13T08:24:03.304Z,85.32
2019-03-13T08:25:01.383Z,84.81
2019-03-13T08:26:03.498Z,85.11
2019-03-13T08:27:03.278Z,84.81
2019-03-13T08:28:03.285Z,85.11
2019-03-13T08:29:02.953Z,84.91
2019-03-13T08:30:02.843Z,84.60
2019-03-13T08:31:02.821Z,84.66
2019-03-13T08:32:02.782Z,85.53
2019-03-13T08:33:03.192Z,85.22
2019-03-13T08:34:02.905Z,85.11
2019-03-13T08:35:02.890Z,85.39
2019-03-13T08:36:02.786Z,84.29
2019-03-13T08:37:02.795Z,84.50
2019-03-13T08:38:02.818Z,85.32
2019-03-13T08:39:02.823Z,85.42
2019-03-13T08:40:08.892Z,85.08
2019-03-13T08:41:02.908Z,85.49
2019-03-13T08:42:02.876Z,85.28
2019-03-13T08:43:03.881Z,85.18
2019-03-13T08:44:02.834Z,84.81
2019-03-13T08:45:03.848Z,85.28
2019-03-13T08:46:02.932Z,84.56
2019-03-13T08:47:02.821Z,84.56
2019-03-13T08:48:03.837Z,84.66
2019-03-13T08:49:02.819Z,84.66
2019-03-13T08:50:03.833Z,84.39
2019-03-13T08:51:02.914Z,84.45
2019-03-13T08:52:02.864Z,84.87
2019-03-13T08:53:02.816Z,84.36
2019-03-13T08:54:02.886Z,84.36
2019-03-13T08:55:02.814Z,84.05
2019-03-13T08:56:02.806Z,83.53
2019-03-13T08:57:02.807Z,83.94
2019-03-13T08:58:02.811Z,83.53
2019-03-13T08:59:02.817Z,84.05
2019-03-13T09:00:02.806Z,83.22
2019-03-13T09:01:02.853Z,83.32
2019-03-13T09:02:02.822Z,83.53
2019-03-13T09:03:02.943Z,83.32
2019-03-13T09:04:02.816Z,83.11
2019-03-13T09:05:02.873Z,83.22
2019-03-13T09:06:01.071Z,82.80
2019-03-13T09:07:02.877Z,83.32
2019-03-13T09:08:02.804Z,83.22
2019-03-13T09:09:02.834Z,82.50
2019-03-13T09:10:02.807Z,83.11
2019-03-13T09:11:02.823Z,83.32
2019-03-13T09:12:01.840Z,83.01
2019-03-13T09:13:02.132Z,83.53
2019-03-13T09:14:02.307Z,83.22
2019-03-13T09:15:02.299Z,83.32
2019-03-13T09:16:02.320Z,83.22
2019-03-13T09:17:02.306Z,83.22
2019-03-13T09:18:02.326Z,82.50
2019-03-13T09:19:02.327Z,82.80
2019-03-13T09:20:02.342Z,82.97
2019-03-13T09:21:02.298Z,82.60
2019-03-13T09:22:02.299Z,82.97
2019-03-13T09:23:02.316Z,83.18
2019-03-13T09:24:02.316Z,82.35
2019-03-13T09:25:11.664Z,83.28
2019-03-13T09:26:03.322Z,83.32
2019-03-13T09:27:02.322Z,82.56
2019-03-13T09:28:02.318Z,81.84
2019-03-13T09:29:02.315Z,82.45
2019-03-13T09:30:02.298Z,83.28
2019-03-13T09:31:02.385Z,82.76
2019-03-13T09:32:02.300Z,82.87
2019-03-13T09:33:02.298Z,83.28
2019-03-13T09:34:02.318Z,83.18
2019-03-13T09:35:03.337Z,83.07
2019-03-13T09:36:02.312Z,83.28
2019-03-13T09:37:02.574Z,83.90
2019-03-13T09:38:02.418Z,83.49
2019-03-13T09:39:02.432Z,84.05
2019-03-13T09:40:03.417Z,84.36
2019-03-13T09:41:03.373Z,85.35
2019-03-13T09:42:02.421Z,84.45
2019-03-13T09:43:03.320Z,84.77
2019-03-13T09:44:02.322Z,85.60
2019-03-13T09:45:02.327Z,84.87
2019-03-13T09:46:03.318Z,85.49
2019-03-13T09:47:02.328Z,85.08
2019-03-13T09:48:03.336Z,85.39
2019-03-13T09:49:02.400Z,84.97
2019-03-13T09:50:02.359Z,85.60
2019-03-13T09:51:02.297Z,85.39
2019-03-13T09:52:03.387Z,86.01
2019-03-13T09:53:01.342Z,85.70
2019-03-13T09:54:02.344Z,86.42
2019-03-13T09:55:04.542Z,85.70
2019-03-13T09:56:03.323Z,85.91
2019-03-13T09:57:02.323Z,86.21
2019-03-13T09:58:03.330Z,87.66
2019-03-13T09:59:02.389Z,86.01
2019-03-13T10:00:07.923Z,86.52
2019-03-13T10:01:02.022Z,86.94
2019-03-13T10:02:01.880Z,87.70
2019-03-13T10:03:02.916Z,88.01
2019-03-13T10:04:01.919Z,88.74
2019-03-13T10:05:00.902Z,89.98
2019-03-13T10:06:02.986Z,90.29
2019-03-13T10:07:01.866Z,90.50
2019-03-13T10:08:02.907Z,91.22
2019-03-13T10:09:01.863Z,92.50
2019-03-13T10:10:01.903Z,92.50
2019-03-13T10:11:01.897Z,92.50
2019-03-13T10:12:01.927Z,92.50
2019-03-13T10:13:02.895Z,91.78
2019-03-13T10:14:01.934Z,92.09
2019-03-13T10:15:01.927Z,92.71
2019-03-13T10:16:07.803Z,93.85
2019-03-13T10:17:11.040Z,92.71
2019-03-13T10:18:07.834Z,93.33
2019-03-13T10:19:09.077Z,93.43
2019-03-13T10:20:07.825Z,94.51
2019-03-13T10:21:07.807Z,94.41
2019-03-13T10:22:07.785Z,95.03
2019-03-13T10:23:07.742Z,94.51
2019-03-13T10:24:09.823Z,94.82
2019-03-13T10:25:07.761Z,95.03
2019-03-13T10:26:01.859Z,95.54
2019-03-13T10:27:07.748Z,94.82
2019-03-13T10:28:02.792Z,94.82
2019-03-13T10:29:07.391Z,95.24
2019-03-13T10:30:01.832Z,95.34
2019-03-13T10:31:01.912Z,94.72
2019-03-13T10:32:01.947Z,94.82
2019-03-13T10:33:02.756Z,95.34
2019-03-13T10:34:01.795Z,95.44
2019-03-13T10:35:01.801Z,95.03
2019-03-13T10:36:09.887Z,95.65
2019-03-13T10:37:02.943Z,95.03
2019-03-13T10:38:13.115Z,95.03
2019-03-13T10:39:02.807Z,96.06
2019-03-13T10:40:01.818Z,95.65
2019-03-13T10:41:01.796Z,94.93
2019-03-13T10:42:02.825Z,95.65
2019-03-13T10:43:02.882Z,95.86
2019-03-13T10:44:09.997Z,95.65
2019-03-13T10:46:10.283Z,95.65
2019-03-13T10:47:10.096Z,95.75
2019-03-13T10:48:12.802Z,95.75
2019-03-13T10:49:11.868Z,96.17
2019-03-13T10:50:18.700Z,95.03
2019-03-13T10:51:11.853Z,94.72
2019-03-13T10:52:11.920Z,94.72
2019-03-13T10:53:18.661Z,94.78
2019-03-13T10:54:18.972Z,94.37
2019-03-13T10:55:11.947Z,94.26
2019-03-13T10:56:18.192Z,94.26
2019-03-13T10:57:13.064Z,93.85
2019-03-13T10:58:12.000Z,93.43
2019-03-13T10:59:09.963Z,93.54
2019-03-13T11:00:10.927Z,93.43
2019-03-13T11:01:11.475Z,93.33
2019-03-13T11:02:11.414Z,93.23
2019-03-13T11:03:11.415Z,93.12
2019-03-13T11:04:11.498Z,93.23
2019-03-13T11:05:11.418Z,92.61
2019-03-13T11:06:11.412Z,92.61
2019-03-13T11:07:11.416Z,92.81
2019-03-13T11:08:11.419Z,91.99
2019-03-13T11:09:11.438Z,91.99
2019-03-13T11:10:11.436Z,90.95
2019-03-13T11:11:11.467Z,92.30
2019-03-13T11:12:11.523Z,91.53
2019-03-13T11:13:11.475Z,91.67
2019-03-13T11:14:15.781Z,91.78
2019-03-13T11:15:11.449Z,91.67
2019-03-13T11:16:11.419Z,92.09
2019-03-13T11:17:11.447Z,91.26
2019-03-13T11:18:18.378Z,91.11
2019-03-13T11:19:11.524Z,91.22
2019-03-13T11:21:21.022Z,90.91
2019-03-13T11:22:22.700Z,91.53
2019-03-13T11:23:22.654Z,91.63
2019-03-13T11:24:22.677Z,90.70
2019-03-13T11:25:22.670Z,90.60
2019-03-13T11:26:22.772Z,90.70
2019-03-13T11:27:22.697Z,90.91
2019-03-13T11:28:22.676Z,90.50
2019-03-13T11:29:22.671Z,90.60
2019-03-13T11:30:22.663Z,90.60
2019-03-13T11:31:22.664Z,90.60
2019-03-13T11:32:22.661Z,90.39
2019-03-13T11:33:22.808Z,90.70
2019-03-13T11:34:30.742Z,90.80
2019-03-13T11:35:22.717Z,90.50
2019-03-13T11:36:22.748Z,90.29
2019-03-13T11:37:22.716Z,90.97
2019-03-13T11:38:22.694Z,91.07
2019-03-13T11:39:22.711Z,91.28
2019-03-13T11:40:22.764Z,90.97
2019-03-13T11:41:22.314Z,92.21
2019-03-13T11:42:22.695Z,91.17
2019-03-13T11:43:22.701Z,90.66
2019-03-13T11:44:22.714Z,92.52
2019-03-13T11:45:22.693Z,92.00
2019-03-13T11:46:22.744Z,91.90
2019-03-13T11:47:21.805Z,91.07
2019-03-13T11:48:22.693Z,91.80
2019-03-13T11:49:29.860Z,92.32
2019-03-13T11:50:28.224Z,92.21
2019-03-13T11:51:22.288Z,91.80
2019-03-13T11:52:22.264Z,92.00
2019-03-13T11:53:20.646Z,91.90
2019-03-13T11:54:22.288Z,91.49
2019-03-13T11:55:22.303Z,91.07
2019-03-13T11:56:22.270Z,90.97
2019-03-13T11:57:22.364Z,91.07
2019-03-13T11:58:22.281Z,90.66
2019-03-13T11:59:20.635Z,91.38
2019-03-13T12:00:22.262Z,90.56
2019-03-13T12:01:22.274Z,90.66
2019-03-13T12:02:22.262Z,90.45
2019-03-13T12:03:22.264Z,90.35
2019-03-13T12:04:22.299Z,90.25
2019-03-13T12:05:20.518Z,90.14
2019-03-13T12:06:22.278Z,90.77
2019-03-13T12:07:22.261Z,90.77
2019-03-13T12:08:22.264Z,90.87
2019-03-13T12:09:22.280Z,90.66
2019-03-13T12:10:22.284Z,91.17
2019-03-13T12:11:21.276Z,91.59
2019-03-13T12:12:22.264Z,92.00
2019-03-13T12:13:22.263Z,93.14
2019-03-13T12:14:22.272Z,93.35
2019-03-13T12:15:22.263Z,93.35
2019-03-13T12:16:22.288Z,94.32
2019-03-13T12:17:22.274Z,93.80
2019-03-13T12:18:22.277Z,94.43
2019-03-13T12:19:22.272Z,94.32
2019-03-13T12:20:22.261Z,94.43
2019-03-13T12:21:22.346Z,94.68
2019-03-13T12:22:22.268Z,94.32
2019-03-13T12:23:22.315Z,94.37
2019-03-13T12:24:22.282Z,95.15
2019-03-13T12:25:22.299Z,95.46
2019-03-13T12:26:22.279Z,96.19
2019-03-13T12:27:22.309Z,96.44
2019-03-13T12:28:22.275Z,97.16
2019-03-13T12:29:21.797Z,98.09
2019-03-13T12:30:21.776Z,98.50
2019-03-13T12:31:21.777Z,97.93
2019-03-13T12:32:21.849Z,98.86
2019-03-13T12:33:21.793Z,99.17
2019-03-13T12:34:21.799Z,99.58
2019-03-13T12:35:21.793Z,98.96
2019-03-13T12:36:21.838Z,99.17
2019-03-13T12:37:21.784Z,99.48
2019-03-13T12:38:21.776Z,99.99
2019-03-13T12:39:21.776Z,99.99
2019-03-13T12:40:21.811Z,99.69
2019-03-13T12:41:20.156Z,99.99
2019-03-13T12:42:21.795Z,99.99
2019-03-13T12:43:22.816Z,99.99
2019-03-13T12:44:21.785Z,99.38
2019-03-13T12:45:21.776Z,99.99
2019-03-13T12:46:21.819Z,99.99
2019-03-13T12:47:20.091Z,99.90
2019-03-13T12:48:21.787Z,99.99
2019-03-13T12:49:21.774Z,99.99
2019-03-13T12:50:21.782Z,99.99
2019-03-13T12:51:21.784Z,99.99
2019-03-13T12:52:21.788Z,99.99
2019-03-13T12:53:20.020Z,99.99
2019-03-13T12:54:27.570Z,99.99
2019-03-13T12:55:21.831Z,99.99
2019-03-13T12:56:21.826Z,99.99
2019-03-13T12:57:21.807Z,99.99
2019-03-13T12:58:21.816Z,99.99
2019-03-13T12:59:19.975Z,99.99
2019-03-13T13:00:29.359Z,99.99
2019-03-13T13:01:21.925Z,99.99
2019-03-13T13:02:21.850Z,99.99
2019-03-13T13:03:21.850Z,99.99
2019-03-13T13:04:21.920Z,99.99
2019-03-13T13:05:20.376Z,99.99
2019-03-13T13:06:21.833Z,99.99
2019-03-13T13:07:21.862Z,99.99
2019-03-13T13:08:21.837Z,99.99
2019-03-13T13:09:21.841Z,99.99
2019-03-13T13:10:21.391Z,99.99